Michurinsk, Russia
Current Conditions -  °F | °C
As of 1:00 PM on Tuesday 27 Jan 2015 (Local Time) from UUOO Reporting Station
Overcast Overcast  
Wind Chill:   Ceiling: 900
Heat Index: 19°   Visibility: 5mi
Dew Point: 16°   Wind: 18mph
Humidity: 86%   Direction: 130°SE
Pressure: 30.15"   Gusts: NA
Location:  52.9°N, 40.5°E
Report Text: UUOO 271000Z 13008MPS 8000 OVC009 M07/M09 Q1021 NOSIG RMK 12821042
Loading
Personal Weather Stations






























Interactive Weather Map New forecast layout! Learn more

10-Day Weather Forecast

Advertisements
Track Severe Weather on mobile